sensor_id;sensor_type;location;lat;lon;timestamp;pressure;altitude;pressure_sealevel;temperature;humidity
22580;BME280;11456;47.030;15.396;2023-04-30T00:02:07;97532.38;;;11.95;98.81
22580;BME280;11456;47.030;15.396;2023-04-30T00:04:34;97533.97;;;11.80;99.13
22580;BME280;11456;47.030;15.396;2023-04-30T00:07:00;97529.13;;;11.83;100.00
22580;BME280;11456;47.030;15.396;2023-04-30T00:09:27;97539.50;;;11.70;100.00
22580;BME280;11456;47.030;15.396;2023-04-30T00:11:54;97535.78;;;11.71;100.00
22580;BME280;11456;47.030;15.396;2023-04-30T00:14:20;97535.19;;;11.85;100.00
22580;BME280;11456;47.030;15.396;2023-04-30T00:16:47;97536.75;;;11.96;100.00
22580;BME280;11456;47.030;15.396;2023-04-30T00:19:13;97535.19;;;11.85;100.00
22580;BME280;11456;47.030;15.396;2023-04-30T00:21:40;97542.97;;;11.88;100.00
22580;BME280;11456;47.030;15.396;2023-04-30T00:24:07;97542.63;;;11.83;100.00
22580;BME280;11456;47.030;15.396;2023-04-30T00:26:33;97556.44;;;11.88;100.00
22580;BME280;11456;47.030;15.396;2023-04-30T00:29:00;97544.94;;;11.78;100.00
22580;BME280;11456;47.030;15.396;2023-04-30T00:31:27;97548.00;;;11.91;100.00
22580;BME280;11456;47.030;15.396;2023-04-30T00:33:54;97547.75;;;12.11;100.00
22580;BME280;11456;47.030;15.396;2023-04-30T00:36:21;97540.63;;;11.93;100.00
22580;BME280;11456;47.030;15.396;2023-04-30T00:38:48;97548.34;;;11.88;100.00
22580;BME280;11456;47.030;15.396;2023-04-30T00:41:15;97546.16;;;11.84;100.00
22580;BME280;11456;47.030;15.396;2023-04-30T00:43:41;97549.72;;;11.92;100.00
22580;BME280;11456;47.030;15.396;2023-04-30T00:46:08;97551.13;;;12.13;100.00
22580;BME280;11456;47.030;15.396;2023-04-30T00:48:34;97548.66;;;12.27;100.00
22580;BME280;11456;47.030;15.396;2023-04-30T00:51:02;97546.09;;;12.10;100.00
22580;BME280;11456;47.030;15.396;2023-04-30T00:53:29;97538.78;;;12.02;100.00
22580;BME280;11456;47.030;15.396;2023-04-30T00:55:56;97535.91;;;12.03;100.00
22580;BME280;11456;47.030;15.396;2023-04-30T00:58:24;97533.59;;;12.09;100.00
22580;BME280;11456;47.030;15.396;2023-04-30T01:00:51;97530.19;;;12.07;100.00
22580;BME280;11456;47.030;15.396;2023-04-30T01:03:17;97545.06;;;12.19;100.00
22580;BME280;11456;47.030;15.396;2023-04-30T01:05:45;97543.53;;;12.16;100.00
22580;BME280;11456;47.030;15.396;2023-04-30T01:08:11;97533.28;;;12.20;100.00
22580;BME280;11456;47.030;15.396;2023-04-30T01:10:44;97535.31;;;12.26;100.00
22580;BME280;11456;47.030;15.396;2023-04-30T01:13:16;97539.03;;;12.33;100.00
22580;BME280;11456;47.030;15.396;2023-04-30T01:15:46;97543.94;;;12.37;100.00
22580;BME280;11456;47.030;15.396;2023-04-30T01:18:18;97550.13;;;12.14;100.00
22580;BME280;11456;47.030;15.396;2023-04-30T01:20:49;97544.75;;;12.22;100.00
22580;BME280;11456;47.030;15.396;2023-04-30T01:23:32;97549.81;;;12.25;100.00
22580;BME280;11456;47.030;15.396;2023-04-30T01:28:37;97548.22;;;11.98;100.00
22580;BME280;11456;47.030;15.396;2023-04-30T01:31:15;97552.06;;;11.87;100.00
22580;BME280;11456;47.030;15.396;2023-04-30T01:33:43;97550.28;;;11.70;100.00
22580;BME280;11456;47.030;15.396;2023-04-30T01:36:12;97562.22;;;11.68;100.00
22580;BME280;11456;47.030;15.396;2023-04-30T01:41:34;97562.88;;;11.61;100.00
22580;BME280;11456;47.030;15.396;2023-04-30T01:46:29;97556.63;;;11.61;100.00
22580;BME280;11456;47.030;15.396;2023-04-30T01:49:12;97562.66;;;11.55;100.00
22580;BME280;11456;47.030;15.396;2023-04-30T01:51:41;97562.03;;;11.61;100.00
22580;BME280;11456;47.030;15.396;2023-04-30T01:54:13;97564.78;;;11.69;100.00
22580;BME280;11456;47.030;15.396;2023-04-30T01:56:43;97563.06;;;11.68;100.00
22580;BME280;11456;47.030;15.396;2023-04-30T01:59:11;97561.97;;;11.53;100.00
22580;BME280;11456;47.030;15.396;2023-04-30T02:01:39;97573.69;;;11.36;100.00
22580;BME280;11456;47.030;15.396;2023-04-30T02:04:06;97563.44;;;11.39;100.00
22580;BME280;11456;47.030;15.396;2023-04-30T02:06:33;97572.56;;;11.46;100.00
22580;BME280;11456;47.030;15.396;2023-04-30T02:09:00;97568.72;;;11.49;100.00
22580;BME280;11456;47.030;15.396;2023-04-30T02:11:31;97569.75;;;11.56;100.00
22580;BME280;11456;47.030;15.396;2023-04-30T02:13:58;97572.75;;;11.45;100.00
22580;BME280;11456;47.030;15.396;2023-04-30T02:16:25;97570.34;;;11.42;100.00
22580;BME280;11456;47.030;15.396;2023-04-30T02:18:51;97569.88;;;11.20;100.00
22580;BME280;11456;47.030;15.396;2023-04-30T02:21:18;97577.28;;;11.18;100.00
22580;BME280;11456;47.030;15.396;2023-04-30T02:23:45;97584.25;;;11.29;100.00
22580;BME280;11456;47.030;15.396;2023-04-30T02:26:12;97577.50;;;11.25;100.00
22580;BME280;11456;47.030;15.396;2023-04-30T02:28:39;97589.28;;;11.50;100.00
22580;BME280;11456;47.030;15.396;2023-04-30T02:31:05;97588.53;;;11.40;100.00
22580;BME280;11456;47.030;15.396;2023-04-30T02:33:32;97593.97;;;11.22;100.00
22580;BME280;11456;47.030;15.396;2023-04-30T02:35:59;97595.69;;;11.23;100.00
22580;BME280;11456;47.030;15.396;2023-04-30T02:38:25;97603.25;;;11.02;100.00
22580;BME280;11456;47.030;15.396;2023-04-30T02:40:52;97595.56;;;11.07;100.00
22580;BME280;11456;47.030;15.396;2023-04-30T02:43:18;97601.13;;;11.05;100.00
22580;BME280;11456;47.030;15.396;2023-04-30T02:45:45;97596.53;;;10.80;100.00
22580;BME280;11456;47.030;15.396;2023-04-30T02:48:11;97599.50;;;10.77;100.00
22580;BME280;11456;47.030;15.396;2023-04-30T02:50:38;97599.50;;;10.77;100.00
22580;BME280;11456;47.030;15.396;2023-04-30T02:53:04;97610.00;;;10.80;100.00
22580;BME280;11456;47.030;15.396;2023-04-30T02:55:31;97611.38;;;10.84;100.00
22580;BME280;11456;47.030;15.396;2023-04-30T02:57:58;97604.84;;;10.87;100.00
22580;BME280;11456;47.030;15.396;2023-04-30T03:00:25;97608.28;;;10.79;100.00
22580;BME280;11456;47.030;15.396;2023-04-30T03:02:51;97609.53;;;10.67;100.00
22580;BME280;11456;47.030;15.396;2023-04-30T03:05:18;97614.31;;;10.55;100.00
22580;BME280;11456;47.030;15.396;2023-04-30T03:07:45;97619.22;;;10.77;100.00
22580;BME280;11456;47.030;15.396;2023-04-30T03:10:11;97617.59;;;10.84;100.00
22580;BME280;11456;47.030;15.396;2023-04-30T03:12:37;97624.47;;;10.79;100.00
22580;BME280;11456;47.030;15.396;2023-04-30T03:15:04;97620.78;;;10.80;100.00
22580;BME280;11456;47.030;15.396;2023-04-30T03:17:31;97623.22;;;10.73;100.00
22580;BME280;11456;47.030;15.396;2023-04-30T03:19:57;97619.06;;;10.79;100.00
22580;BME280;11456;47.030;15.396;2023-04-30T03:22:24;97621.84;;;10.87;100.00
22580;BME280;11456;47.030;15.396;2023-04-30T03:24:52;97625.31;;;10.79;100.00
22580;BME280;11456;47.030;15.396;2023-04-30T03:27:18;97625.53;;;10.86;100.00
22580;BME280;11456;47.030;15.396;2023-04-30T03:29:45;97635.28;;;11.05;100.00
22580;BME280;11456;47.030;15.396;2023-04-30T03:32:11;97628.13;;;11.13;100.00
22580;BME280;11456;47.030;15.396;2023-04-30T03:34:38;97638.09;;;11.21;100.00
22580;BME280;11456;47.030;15.396;2023-04-30T03:37:04;97636.84;;;11.07;100.00
22580;BME280;11456;47.030;15.396;2023-04-30T03:39:31;97632.13;;;11.09;100.00
22580;BME280;11456;47.030;15.396;2023-04-30T03:41:57;97635.75;;;11.18;100.00
22580;BME280;11456;47.030;15.396;2023-04-30T03:44:24;97631.63;;;11.32;100.00
22580;BME280;11456;47.030;15.396;2023-04-30T03:46:51;97626.47;;;11.38;100.00
22580;BME280;11456;47.030;15.396;2023-04-30T03:49:17;97631.03;;;11.46;100.00
22580;BME280;11456;47.030;15.396;2023-04-30T03:51:44;97629.78;;;11.58;100.00
22580;BME280;11456;47.030;15.396;2023-04-30T03:54:10;97627.09;;;11.58;100.00
22580;BME280;11456;47.030;15.396;2023-04-30T03:56:37;97623.84;;;11.54;100.00
22580;BME280;11456;47.030;15.396;2023-04-30T03:59:04;97623.50;;;11.75;100.00
22580;BME280;11456;47.030;15.396;2023-04-30T04:01:31;97631.00;;;11.89;100.00
22580;BME280;11456;47.030;15.396;2023-04-30T04:03:58;97636.06;;;11.92;100.00
22580;BME280;11456;47.030;15.396;2023-04-30T04:06:25;97631.88;;;11.98;100.00
22580;BME280;11456;47.030;15.396;2023-04-30T04:08:52;97640.56;;;12.10;100.00
22580;BME280;11456;47.030;15.396;2023-04-30T04:11:21;97643.66;;;11.89;100.00
22580;BME280;11456;47.030;15.396;2023-04-30T04:13:47;97641.81;;;11.89;100.00
22580;BME280;11456;47.030;15.396;2023-04-30T04:16:14;97651.97;;;11.95;100.00
22580;BME280;11456;47.030;15.396;2023-04-30T04:18:41;97657.66;;;11.92;100.00
22580;BME280;11456;47.030;15.396;2023-04-30T04:21:07;97650.47;;;12.01;100.00
22580;BME280;11456;47.030;15.396;2023-04-30T04:23:34;97662.69;;;11.87;100.00
22580;BME280;11456;47.030;15.396;2023-04-30T04:26:00;97665.59;;;11.94;100.00
22580;BME280;11456;47.030;15.396;2023-04-30T04:28:28;97659.34;;;11.93;100.00
22580;BME280;11456;47.030;15.396;2023-04-30T04:30:54;97659.69;;;11.90;100.00
22580;BME280;11456;47.030;15.396;2023-04-30T04:33:21;97668.56;;;12.09;100.00
22580;BME280;11456;47.030;15.396;2023-04-30T04:35:48;97665.22;;;12.23;100.00
22580;BME280;11456;47.030;15.396;2023-04-30T04:38:14;97660.22;;;12.36;100.00
22580;BME280;11456;47.030;15.396;2023-04-30T04:40:49;97680.16;;;12.35;100.00
22580;BME280;11456;47.030;15.396;2023-04-30T04:43:16;97686.44;;;12.52;100.00
22580;BME280;11456;47.030;15.396;2023-04-30T04:45:43;97665.06;;;12.74;100.00
22580;BME280;11456;47.030;15.396;2023-04-30T04:48:09;97675.19;;;12.80;100.00
22580;BME280;11456;47.030;15.396;2023-04-30T04:50:36;97684.53;;;12.86;100.00
22580;BME280;11456;47.030;15.396;2023-04-30T04:53:02;97684.53;;;12.86;100.00
22580;BME280;11456;47.030;15.396;2023-04-30T04:55:29;97696.19;;;12.87;100.00
22580;BME280;11456;47.030;15.396;2023-04-30T04:57:56;97694.44;;;12.69;100.00
22580;BME280;11456;47.030;15.396;2023-04-30T05:00:22;97691.25;;;12.32;100.00
22580;BME280;11456;47.030;15.396;2023-04-30T05:02:51;97692.03;;;12.16;100.00
22580;BME280;11456;47.030;15.396;2023-04-30T05:05:17;97694.91;;;12.15;100.00
22580;BME280;11456;47.030;15.396;2023-04-30T05:07:44;97696.47;;;12.67;100.00
22580;BME280;11456;47.030;15.396;2023-04-30T05:10:11;97695.63;;;12.67;100.00
22580;BME280;11456;47.030;15.396;2023-04-30T05:12:37;97693.50;;;12.87;100.00
22580;BME280;11456;47.030;15.396;2023-04-30T05:15:04;97690.16;;;13.25;100.00
22580;BME280;11456;47.030;15.396;2023-04-30T05:17:31;97688.78;;;13.05;100.00
22580;BME280;11456;47.030;15.396;2023-04-30T05:19:58;97688.75;;;12.97;100.00
22580;BME280;11456;47.030;15.396;2023-04-30T05:22:24;97688.25;;;13.01;100.00
22580;BME280;11456;47.030;15.396;2023-04-30T05:24:51;97695.25;;;13.28;100.00
22580;BME280;11456;47.030;15.396;2023-04-30T05:27:18;97698.97;;;13.43;100.00
22580;BME280;11456;47.030;15.396;2023-04-30T05:29:44;97694.53;;;13.83;98.84
22580;BME280;11456;47.030;15.396;2023-04-30T05:32:11;97702.94;;;14.12;97.99
22580;BME280;11456;47.030;15.396;2023-04-30T05:34:37;97704.44;;;14.23;96.58
22580;BME280;11456;47.030;15.396;2023-04-30T05:37:04;97707.56;;;14.59;94.06
22580;BME280;11456;47.030;15.396;2023-04-30T05:39:30;97707.91;;;14.56;92.23
22580;BME280;11456;47.030;15.396;2023-04-30T05:41:57;97702.38;;;14.33;91.47
22580;BME280;11456;47.030;15.396;2023-04-30T05:44:23;97704.31;;;14.63;90.16
22580;BME280;11456;47.030;15.396;2023-04-30T05:46:50;97709.59;;;14.57;90.15
22580;BME280;11456;47.030;15.396;2023-04-30T05:49:16;97714.34;;;14.85;89.36
22580;BME280;11456;47.030;15.396;2023-04-30T05:51:43;97708.84;;;14.71;88.92
22580;BME280;11456;47.030;15.396;2023-04-30T05:54:09;97710.16;;;14.83;89.15
22580;BME280;11456;47.030;15.396;2023-04-30T05:56:36;97708.41;;;14.90;89.09
22580;BME280;11456;47.030;15.396;2023-04-30T05:59:02;97710.59;;;14.64;89.41
22580;BME280;11456;47.030;15.396;2023-04-30T06:01:29;97712.03;;;15.05;88.17
22580;BME280;11456;47.030;15.396;2023-04-30T06:03:55;97711.53;;;15.33;85.82
22580;BME280;11456;47.030;15.396;2023-04-30T06:06:22;97716.91;;;14.87;87.68
22580;BME280;11456;47.030;15.396;2023-04-30T06:08:48;97713.69;;;14.53;88.50
22580;BME280;11456;47.030;15.396;2023-04-30T06:11:15;97713.19;;;15.11;88.35
22580;BME280;11456;47.030;15.396;2023-04-30T06:13:42;97713.56;;;15.31;87.35
22580;BME280;11456;47.030;15.396;2023-04-30T06:16:08;97715.47;;;15.90;84.15
22580;BME280;11456;47.030;15.396;2023-04-30T06:18:35;97711.94;;;16.04;82.61
22580;BME280;11456;47.030;15.396;2023-04-30T06:21:01;97715.31;;;15.23;84.89
22580;BME280;11456;47.030;15.396;2023-04-30T06:23:28;97716.19;;;14.93;87.33
22580;BME280;11456;47.030;15.396;2023-04-30T06:25:54;97714.69;;;15.67;85.02
22580;BME280;11456;47.030;15.396;2023-04-30T06:28:21;97719.53;;;16.09;82.01
22580;BME280;11456;47.030;15.396;2023-04-30T06:30:48;97726.94;;;15.09;86.48
22580;BME280;11456;47.030;15.396;2023-04-30T06:33:15;97736.41;;;14.82;88.12
22580;BME280;11456;47.030;15.396;2023-04-30T06:35:41;97738.53;;;15.26;87.68
22580;BME280;11456;47.030;15.396;2023-04-30T06:38:08;97744.09;;;15.33;86.62
22580;BME280;11456;47.030;15.396;2023-04-30T06:40:34;97744.72;;;14.81;86.89
22580;BME280;11456;47.030;15.396;2023-04-30T06:43:01;97740.50;;;15.63;86.25
22580;BME280;11456;47.030;15.396;2023-04-30T06:45:27;97734.28;;;16.44;78.72
22580;BME280;11456;47.030;15.396;2023-04-30T06:47:54;97742.72;;;16.49;77.20
22580;BME280;11456;47.030;15.396;2023-04-30T06:50:21;97752.31;;;16.74;76.46
22580;BME280;11456;47.030;15.396;2023-04-30T06:52:47;97743.63;;;17.15;75.45
22580;BME280;11456;47.030;15.396;2023-04-30T06:55:14;97753.44;;;17.67;71.77
22580;BME280;11456;47.030;15.396;2023-04-30T06:57:40;97749.25;;;17.71;70.91
22580;BME280;11456;47.030;15.396;2023-04-30T07:00:07;97755.03;;;16.74;73.29
22580;BME280;11456;47.030;15.396;2023-04-30T07:02:34;97757.84;;;16.81;73.95
22580;BME280;11456;47.030;15.396;2023-04-30T07:05:01;97748.19;;;17.50;72.44
22580;BME280;11456;47.030;15.396;2023-04-30T07:07:28;97745.84;;;17.26;73.10
22580;BME280;11456;47.030;15.396;2023-04-30T07:09:54;97746.47;;;16.77;73.13
22580;BME280;11456;47.030;15.396;2023-04-30T07:12:22;97742.06;;;16.91;75.13
22580;BME280;11456;47.030;15.396;2023-04-30T07:14:48;97745.59;;;18.06;71.19
22580;BME280;11456;47.030;15.396;2023-04-30T07:17:15;97741.59;;;18.58;67.98
22580;BME280;11456;47.030;15.396;2023-04-30T07:19:42;97744.38;;;17.87;69.78
22580;BME280;11456;47.030;15.396;2023-04-30T07:22:08;97741.72;;;17.94;69.93
22580;BME280;11456;47.030;15.396;2023-04-30T07:24:35;97743.19;;;16.38;74.72
22580;BME280;11456;47.030;15.396;2023-04-30T07:27:02;97730.72;;;16.88;74.61
22580;BME280;11456;47.030;15.396;2023-04-30T07:29:29;97735.06;;;16.67;76.38
22580;BME280;11456;47.030;15.396;2023-04-30T07:31:55;97732.13;;;17.77;74.10
22580;BME280;11456;47.030;15.396;2023-04-30T07:34:23;97731.63;;;18.16;71.22
22580;BME280;11456;47.030;15.396;2023-04-30T07:36:50;97745.44;;;18.14;70.55
22580;BME280;11456;47.030;15.396;2023-04-30T07:39:16;97740.25;;;17.91;69.88
22580;BME280;11456;47.030;15.396;2023-04-30T07:41:43;97740.59;;;17.46;71.67
22580;BME280;11456;47.030;15.396;2023-04-30T07:44:09;97748.19;;;17.50;70.85
22580;BME280;11456;47.030;15.396;2023-04-30T07:46:37;97748.06;;;17.01;72.42
22580;BME280;11456;47.030;15.396;2023-04-30T07:49:04;97752.47;;;17.59;72.48
22580;BME280;11456;47.030;15.396;2023-04-30T07:51:30;97753.25;;;17.53;70.84
22580;BME280;11456;47.030;15.396;2023-04-30T07:53:58;97762.25;;;16.67;72.12
22580;BME280;11456;47.030;15.396;2023-04-30T07:56:27;97755.50;;;16.63;72.49
22580;BME280;11456;47.030;15.396;2023-04-30T07:58:54;97765.41;;;16.56;73.79
22580;BME280;11456;47.030;15.396;2023-04-30T08:01:20;97763.88;;;16.39;76.73
22580;BME280;11456;47.030;15.396;2023-04-30T08:03:47;97762.34;;;17.24;74.71
22580;BME280;11456;47.030;15.396;2023-04-30T08:06:14;97765.31;;;16.64;76.47
22580;BME280;11456;47.030;15.396;2023-04-30T08:08:40;97767.00;;;16.36;77.45
22580;BME280;11456;47.030;15.396;2023-04-30T08:11:07;97760.56;;;16.66;74.97
22580;BME280;11456;47.030;15.396;2023-04-30T08:13:33;97764.31;;;17.31;73.26
22580;BME280;11456;47.030;15.396;2023-04-30T08:16:00;97757.00;;;17.52;70.91
22580;BME280;11456;47.030;15.396;2023-04-30T08:18:27;97759.34;;;17.34;67.24
22580;BME280;11456;47.030;15.396;2023-04-30T08:20:54;97765.41;;;16.86;67.63
22580;BME280;11456;47.030;15.396;2023-04-30T08:23:20;97766.84;;;16.96;67.92
22580;BME280;11456;47.030;15.396;2023-04-30T08:25:47;97764.78;;;16.69;70.95
22580;BME280;11456;47.030;15.396;2023-04-30T08:28:14;97775.34;;;16.49;71.82
22580;BME280;11456;47.030;15.396;2023-04-30T08:30:40;97769.81;;;16.42;72.42
22580;BME280;11456;47.030;15.396;2023-04-30T08:33:07;97769.41;;;16.45;73.71
22580;BME280;11456;47.030;15.396;2023-04-30T08:35:33;97776.88;;;15.99;74.80
22580;BME280;11456;47.030;15.396;2023-04-30T08:38:00;97782.53;;;15.90;74.03
22580;BME280;11456;47.030;15.396;2023-04-30T08:40:26;97786.53;;;16.17;75.66
22580;BME280;11456;47.030;15.396;2023-04-30T08:43:13;97774.94;;;15.85;76.87
22580;BME280;11456;47.030;15.396;2023-04-30T08:45:40;97783.66;;;16.18;76.58
22580;BME280;11456;47.030;15.396;2023-04-30T08:48:08;97779.91;;;16.19;75.92
22580;BME280;11456;47.030;15.396;2023-04-30T08:50:36;97775.41;;;16.41;74.88
22580;BME280;11456;47.030;15.396;2023-04-30T08:53:03;97772.53;;;16.57;74.45
22580;BME280;11456;47.030;15.396;2023-04-30T08:55:29;97779.34;;;17.27;70.54
22580;BME280;11456;47.030;15.396;2023-04-30T08:57:59;97777.63;;;16.90;69.82
22580;BME280;11456;47.030;15.396;2023-04-30T09:00:25;97774.59;;;17.35;68.79
22580;BME280;11456;47.030;15.396;2023-04-30T09:02:52;97774.66;;;17.56;67.57
22580;BME280;11456;47.030;15.396;2023-04-30T09:05:19;97772.63;;;18.29;65.21
22580;BME280;11456;47.030;15.396;2023-04-30T09:07:46;97779.84;;;18.71;64.10
22580;BME280;11456;47.030;15.396;2023-04-30T09:10:19;97783.47;;;18.78;62.58
22580;BME280;11456;47.030;15.396;2023-04-30T09:15:27;97779.88;;;17.73;68.43
22580;BME280;11456;47.030;15.396;2023-04-30T09:18:06;97781.44;;;17.82;68.07
22580;BME280;11456;47.030;15.396;2023-04-30T09:20:33;97786.56;;;17.34;68.88
22580;BME280;11456;47.030;15.396;2023-04-30T09:23:07;97780.63;;;17.31;67.61
22580;BME280;11456;47.030;15.396;2023-04-30T09:25:38;97786.78;;;17.18;69.04
22580;BME280;11456;47.030;15.396;2023-04-30T09:28:06;97783.00;;;17.70;66.75
22580;BME280;11456;47.030;15.396;2023-04-30T09:30:33;97779.63;;;17.89;66.33
22580;BME280;11456;47.030;15.396;2023-04-30T09:33:00;97773.31;;;17.31;65.74
22580;BME280;11456;47.030;15.396;2023-04-30T09:35:28;97783.25;;;17.75;64.45
22580;BME280;11456;47.030;15.396;2023-04-30T09:37:54;97776.88;;;17.68;62.30
22580;BME280;11456;47.030;15.396;2023-04-30T09:40:31;97776.34;;;18.00;62.53
22580;BME280;11456;47.030;15.396;2023-04-30T09:42:58;97769.59;;;17.53;66.50
22580;BME280;11456;47.030;15.396;2023-04-30T09:45:25;97771.59;;;17.09;66.40
22580;BME280;11456;47.030;15.396;2023-04-30T09:47:52;97769.50;;;17.11;66.05
22580;BME280;11456;47.030;15.396;2023-04-30T09:50:25;97760.78;;;17.15;66.46
22580;BME280;11456;47.030;15.396;2023-04-30T09:52:52;97769.31;;;17.48;66.03
22580;BME280;11456;47.030;15.396;2023-04-30T09:55:19;97768.78;;;17.38;65.47
22580;BME280;11456;47.030;15.396;2023-04-30T09:57:46;97761.41;;;17.32;67.00
22580;BME280;11456;47.030;15.396;2023-04-30T10:00:13;97771.44;;;16.96;66.74
22580;BME280;11456;47.030;15.396;2023-04-30T10:02:40;97768.06;;;16.79;66.69
22580;BME280;11456;47.030;15.396;2023-04-30T10:05:07;97764.69;;;16.77;67.19
22580;BME280;11456;47.030;15.396;2023-04-30T10:07:35;97762.22;;;16.97;67.37
22580;BME280;11456;47.030;15.396;2023-04-30T10:10:07;97763.59;;;17.43;66.44
22580;BME280;11456;47.030;15.396;2023-04-30T10:15:12;97759.59;;;17.39;65.53
22580;BME280;11456;47.030;15.396;2023-04-30T10:17:40;97756.50;;;18.06;63.80
22580;BME280;11456;47.030;15.396;2023-04-30T10:20:08;97749.47;;;18.74;61.17
22580;BME280;11456;47.030;15.396;2023-04-30T10:22:34;97747.25;;;18.97;60.29
22580;BME280;11456;47.030;15.396;2023-04-30T10:25:01;97741.28;;;20.42;56.73
22580;BME280;11456;47.030;15.396;2023-04-30T10:27:28;97738.19;;;20.96;53.47
22580;BME280;11456;47.030;15.396;2023-04-30T10:29:55;97737.81;;;20.79;52.07
22580;BME280;11456;47.030;15.396;2023-04-30T10:32:22;97736.19;;;22.23;49.13
22580;BME280;11456;47.030;15.396;2023-04-30T10:37:20;97736.78;;;19.55;54.17
22580;BME280;11456;47.030;15.396;2023-04-30T10:39:49;97725.69;;;19.83;54.85
22580;BME280;11456;47.030;15.396;2023-04-30T10:42:16;97724.22;;;18.37;55.80
22580;BME280;11456;47.030;15.396;2023-04-30T10:44:43;97721.16;;;18.19;56.55
22580;BME280;11456;47.030;15.396;2023-04-30T10:47:10;97728.19;;;18.63;54.41
22580;BME280;11456;47.030;15.396;2023-04-30T10:49:36;97715.28;;;18.16;56.14
22580;BME280;11456;47.030;15.396;2023-04-30T10:52:03;97716.13;;;17.67;58.43
22580;BME280;11456;47.030;15.396;2023-04-30T10:54:31;97723.91;;;17.91;57.81
22580;BME280;11456;47.030;15.396;2023-04-30T10:57:14;97715.91;;;18.80;53.46
22580;BME280;11456;47.030;15.396;2023-04-30T10:59:51;97710.13;;;19.83;49.99
22580;BME280;11456;47.030;15.396;2023-04-30T11:02:18;97705.63;;;21.26;46.30
22580;BME280;11456;47.030;15.396;2023-04-30T11:07:31;97703.81;;;23.30;39.50
22580;BME280;11456;47.030;15.396;2023-04-30T11:09:59;97706.56;;;23.30;38.79
22580;BME280;11456;47.030;15.396;2023-04-30T11:12:26;97704.03;;;21.81;39.30
22580;BME280;11456;47.030;15.396;2023-04-30T11:15:14;97708.81;;;22.17;39.25
22580;BME280;11456;47.030;15.396;2023-04-30T11:17:43;97709.50;;;21.05;42.74
22580;BME280;11456;47.030;15.396;2023-04-30T11:20:14;97706.53;;;20.16;44.81
22580;BME280;11456;47.030;15.396;2023-04-30T11:22:44;97706.75;;;19.68;43.51
22580;BME280;11456;47.030;15.396;2023-04-30T11:25:11;97714.78;;;19.15;46.02
22580;BME280;11456;47.030;15.396;2023-04-30T11:27:42;97712.72;;;19.24;46.30
22580;BME280;11456;47.030;15.396;2023-04-30T11:30:12;97711.25;;;18.74;46.52
22580;BME280;11456;47.030;15.396;2023-04-30T11:32:42;97713.38;;;18.78;46.43
22580;BME280;11456;47.030;15.396;2023-04-30T11:35:10;97713.59;;;18.83;47.54
22580;BME280;11456;47.030;15.396;2023-04-30T11:37:37;97712.63;;;18.01;48.98
22580;BME280;11456;47.030;15.396;2023-04-30T11:42:31;97710.72;;;17.95;47.93
22580;BME280;11456;47.030;15.396;2023-04-30T11:47:39;97707.53;;;18.19;46.74
22580;BME280;11456;47.030;15.396;2023-04-30T11:50:07;97704.78;;;17.63;48.10
22580;BME280;11456;47.030;15.396;2023-04-30T11:52:34;97711.22;;;18.39;48.22
22580;BME280;11456;47.030;15.396;2023-04-30T11:55:04;97702.00;;;18.40;46.54
22580;BME280;11456;47.030;15.396;2023-04-30T11:57:34;97699.22;;;19.09;45.23
22580;BME280;11456;47.030;15.396;2023-04-30T12:00:10;97703.03;;;19.21;44.97
22580;BME280;11456;47.030;15.396;2023-04-30T12:02:37;97695.78;;;18.53;44.53
22580;BME280;11456;47.030;15.396;2023-04-30T12:05:10;97694.81;;;18.61;45.59
22580;BME280;11456;47.030;15.396;2023-04-30T12:07:38;97691.44;;;19.00;44.58
22580;BME280;11456;47.030;15.396;2023-04-30T12:10:05;97695.19;;;18.99;43.72
22580;BME280;11456;47.030;15.396;2023-04-30T12:12:31;97691.53;;;20.64;41.02
22580;BME280;11456;47.030;15.396;2023-04-30T12:15:07;97681.34;;;20.91;40.29
22580;BME280;11456;47.030;15.396;2023-04-30T12:17:35;97685.50;;;21.00;41.36
22580;BME280;11456;47.030;15.396;2023-04-30T12:20:02;97682.53;;;20.24;42.59
22580;BME280;11456;47.030;15.396;2023-04-30T12:22:30;97684.22;;;21.03;41.26
22580;BME280;11456;47.030;15.396;2023-04-30T12:24:57;97688.22;;;20.23;42.48
22580;BME280;11456;47.030;15.396;2023-04-30T12:27:24;97675.63;;;20.22;42.26
22580;BME280;11456;47.030;15.396;2023-04-30T12:29:51;97681.72;;;19.97;42.66
22580;BME280;11456;47.030;15.396;2023-04-30T12:32:20;97667.84;;;20.06;42.77
22580;BME280;11456;47.030;15.396;2023-04-30T12:34:47;97674.47;;;19.24;43.41
22580;BME280;11456;47.030;15.396;2023-04-30T12:37:14;97670.06;;;19.16;43.48
22580;BME280;11456;47.030;15.396;2023-04-30T12:39:42;97670.16;;;19.56;42.17
22580;BME280;11456;47.030;15.396;2023-04-30T12:42:08;97662.19;;;19.81;41.21
22580;BME280;11456;47.030;15.396;2023-04-30T12:44:42;97669.88;;;19.25;42.06
22580;BME280;11456;47.030;15.396;2023-04-30T12:47:09;97667.13;;;19.18;42.91
22580;BME280;11456;47.030;15.396;2023-04-30T12:49:36;97662.00;;;18.95;43.00
22580;BME280;11456;47.030;15.396;2023-04-30T12:52:04;97658.94;;;19.18;42.99
22580;BME280;11456;47.030;15.396;2023-04-30T12:54:34;97654.56;;;19.37;42.14
22580;BME280;11456;47.030;15.396;2023-04-30T12:57:02;97661.88;;;19.16;42.19
22580;BME280;11456;47.030;15.396;2023-04-30T12:59:30;97657.34;;;19.50;42.44
22580;BME280;11456;47.030;15.396;2023-04-30T13:02:06;97661.28;;;19.41;43.34
22580;BME280;11456;47.030;15.396;2023-04-30T13:04:33;97656.56;;;20.73;40.47
22580;BME280;11456;47.030;15.396;2023-04-30T13:07:01;97655.81;;;20.46;40.11
22580;BME280;11456;47.030;15.396;2023-04-30T13:09:28;97659.00;;;21.64;38.28
22580;BME280;11456;47.030;15.396;2023-04-30T13:11:55;97656.66;;;21.42;38.22